GLD1736 SBPJ-SBSN
Flight info
| Callsign | GLD1736 |
|---|---|
| Flight time | 1h 36m |
| Altitude | 36000 |
| Route | OPNUP DCT ITALA DCT RONUB DCT ANRUS DCT GELVU DCT ATIDO |
| Aircraft | B737/M-SDE2E3FGHIRWXY/LB1 |
Departure
| Time | 2026-04-18 18:48 |
|---|---|
| Airport | Brigadeiro Lysias Rodrigues Airport (SBPJ) |
Arrival
| Time | 2026-04-18 20:24 |
|---|---|
| Airport | Santarém - Maestro Wilson Fonseca International Airport (SBSN) |
| Time | Latitude | Longitude | Altitude | Speed | Heading |
|---|---|---|---|---|---|
| 2026-04-18 18:16 | -10.29465 | -48.35774 | 782 ft | 0 kts | 213° |
| 2026-04-18 18:37 | -10.29462 | -48.35772 | 782 ft | 0 kts | 213° |
| 2026-04-18 18:38 | -10.29454 | -48.35767 | 782 ft | 2 kts | 213° |
| 2026-04-18 18:38 | -10.29439 | -48.35757 | 782 ft | 3 kts | 213° |
| 2026-04-18 18:38 | -10.29422 | -48.35745 | 782 ft | 3 kts | 213° |
| 2026-04-18 18:38 | -10.29413 | -48.35739 | 782 ft | 0 kts | 213° |
| 2026-04-18 18:42 | -10.29421 | -48.35738 | 782 ft | 2 kts | 141° |
| 2026-04-18 18:42 | -10.29431 | -48.35705 | 782 ft | 12 kts | 119° |
| 2026-04-18 18:42 | -10.29465 | -48.35634 | 782 ft | 11 kts | 62° |
| 2026-04-18 18:42 | -10.29404 | -48.35587 | 782 ft | 11 kts | 33° |
| 2026-04-18 18:43 | -10.29319 | -48.35532 | 782 ft | 6 kts | 33° |
| 2026-04-18 18:43 | -10.29294 | -48.35500 | 782 ft | 7 kts | 91° |
| 2026-04-18 18:43 | -10.29328 | -48.35434 | 782 ft | 14 kts | 123° |
| 2026-04-18 18:44 | -10.29378 | -48.35355 | 782 ft | 13 kts | 123° |
| 2026-04-18 18:44 | -10.29426 | -48.35280 | 782 ft | 12 kts | 123° |
| 2026-04-18 18:44 | -10.29473 | -48.35207 | 782 ft | 12 kts | 123° |
| 2026-04-18 18:44 | -10.29519 | -48.35139 | 782 ft | 12 kts | 124° |
| 2026-04-18 18:45 | -10.29564 | -48.35074 | 782 ft | 11 kts | 124° |
| 2026-04-18 18:45 | -10.29606 | -48.35011 | 782 ft | 11 kts | 124° |
| 2026-04-18 18:45 | -10.29647 | -48.34950 | 782 ft | 10 kts | 124° |
| 2026-04-18 18:45 | -10.29685 | -48.34892 | 782 ft | 10 kts | 124° |
| 2026-04-18 18:46 | -10.29718 | -48.34834 | 782 ft | 9 kts | 108° |
| 2026-04-18 18:46 | -10.29720 | -48.34770 | 782 ft | 9 kts | 114° |
| 2026-04-18 18:46 | -10.29759 | -48.34781 | 782 ft | 9 kts | 288° |
| 2026-04-18 18:46 | -10.29740 | -48.34807 | 782 ft | 0 kts | 305° |
| 2026-04-18 18:47 | -10.29725 | -48.34828 | 782 ft | 14 kts | 305° |
| 2026-04-18 18:47 | -10.29552 | -48.35098 | 782 ft | 78 kts | 302° |
| 2026-04-18 18:47 | -10.29140 | -48.35725 | 782 ft | 134 kts | 304° |
| 2026-04-18 18:48 | -10.28537 | -48.36622 | 874 ft | 171 kts | 304° |
| 2026-04-18 18:48 | -10.27815 | -48.37644 | 1390 ft | 182 kts | 306° |
| 2026-04-18 18:48 | -10.27114 | -48.38689 | 2238 ft | 174 kts | 303° |
| 2026-04-18 18:48 | -10.26473 | -48.39714 | 2946 ft | 176 kts | 302° |
| 2026-04-18 18:49 | -10.25767 | -48.40854 | 3260 ft | 203 kts | 301° |
| 2026-04-18 18:49 | -10.24772 | -48.41994 | 3555 ft | 231 kts | 322° |
| 2026-04-18 18:49 | -10.23324 | -48.42852 | 4025 ft | 251 kts | 333° |
| 2026-04-18 18:49 | -10.21673 | -48.43610 | 4613 ft | 269 kts | 336° |
| 2026-04-18 18:50 | -10.19905 | -48.44330 | 5432 ft | 277 kts | 338° |
| 2026-04-18 18:50 | -10.18093 | -48.45049 | 6325 ft | 282 kts | 338° |
| 2026-04-18 18:50 | -10.16244 | -48.45789 | 7196 ft | 287 kts | 338° |
| 2026-04-18 18:50 | -10.14372 | -48.46544 | 8040 ft | 292 kts | 339° |
| 2026-04-18 18:51 | -10.12468 | -48.47318 | 8920 ft | 295 kts | 339° |
| 2026-04-18 18:51 | -10.10550 | -48.48097 | 9717 ft | 299 kts | 339° |
| 2026-04-18 18:51 | -10.08608 | -48.48888 | 10484 ft | 305 kts | 339° |
| 2026-04-18 18:51 | -10.06585 | -48.49714 | 10929 ft | 323 kts | 338° |
| 2026-04-18 18:52 | -10.04433 | -48.50591 | 11233 ft | 343 kts | 338° |
| 2026-04-18 18:52 | -10.02167 | -48.51518 | 11707 ft | 356 kts | 338° |
| 2026-04-18 18:52 | -9.99885 | -48.52453 | 12388 ft | 361 kts | 337° |
| 2026-04-18 18:52 | -9.97518 | -48.53427 | 13142 ft | 364 kts | 337° |
| 2026-04-18 18:53 | -9.95189 | -48.54384 | 13847 ft | 368 kts | 337° |
| 2026-04-18 18:53 | -9.92806 | -48.55361 | 14539 ft | 372 kts | 337° |
| 2026-04-18 18:53 | -9.90398 | -48.56348 | 15226 ft | 375 kts | 338° |
| 2026-04-18 18:53 | -9.87968 | -48.57343 | 15896 ft | 378 kts | 338° |
| 2026-04-18 18:54 | -9.85519 | -48.58345 | 16536 ft | 382 kts | 338° |
| 2026-04-18 18:54 | -9.83048 | -48.59356 | 17185 ft | 384 kts | 338° |
| 2026-04-18 18:54 | -9.80558 | -48.60375 | 17800 ft | 388 kts | 338° |
| 2026-04-18 18:54 | -9.78044 | -48.61404 | 18411 ft | 391 kts | 338° |
| 2026-04-18 18:55 | -9.75513 | -48.62439 | 18998 ft | 394 kts | 338° |
| 2026-04-18 18:55 | -9.72951 | -48.63486 | 19563 ft | 398 kts | 338° |
| 2026-04-18 18:55 | -9.70441 | -48.64678 | 20102 ft | 401 kts | 329° |
| 2026-04-18 18:55 | -9.68172 | -48.66315 | 20635 ft | 403 kts | 319° |
| 2026-04-18 18:56 | -9.66182 | -48.68326 | 21150 ft | 405 kts | 311° |
| 2026-04-18 18:56 | -9.64356 | -48.70529 | 21663 ft | 408 kts | 308° |
| 2026-04-18 18:56 | -9.62607 | -48.72805 | 22142 ft | 410 kts | 307° |
| 2026-04-18 18:56 | -9.60863 | -48.75103 | 22618 ft | 413 kts | 307° |
| 2026-04-18 18:57 | -9.59104 | -48.77406 | 23067 ft | 416 kts | 307° |
| 2026-04-18 18:57 | -9.57317 | -48.79734 | 23507 ft | 418 kts | 307° |
| 2026-04-18 18:57 | -9.55520 | -48.82066 | 23936 ft | 421 kts | 307° |
| 2026-04-18 18:57 | -9.53714 | -48.84407 | 24313 ft | 424 kts | 307° |
| 2026-04-18 18:58 | -9.51891 | -48.86762 | 24710 ft | 426 kts | 307° |
| 2026-04-18 18:58 | -9.50059 | -48.89129 | 25088 ft | 429 kts | 307° |
| 2026-04-18 18:58 | -9.48209 | -48.91515 | 25474 ft | 431 kts | 307° |
| 2026-04-18 18:58 | -9.46357 | -48.93910 | 25834 ft | 433 kts | 307° |
| 2026-04-18 18:59 | -9.44491 | -48.96323 | 26199 ft | 435 kts | 307° |
| 2026-04-18 18:59 | -9.42620 | -48.98740 | 26536 ft | 438 kts | 307° |
| 2026-04-18 18:59 | -9.40738 | -49.01170 | 26883 ft | 440 kts | 307° |
| 2026-04-18 18:59 | -9.38866 | -49.03584 | 27210 ft | 442 kts | 307° |
| 2026-04-18 19:00 | -9.36943 | -49.06062 | 27539 ft | 444 kts | 307° |
| 2026-04-18 19:00 | -9.35051 | -49.08501 | 27840 ft | 446 kts | 307° |
| 2026-04-18 19:00 | -9.33100 | -49.11015 | 28163 ft | 448 kts | 307° |
| 2026-04-18 19:00 | -9.31196 | -49.13467 | 28446 ft | 450 kts | 307° |
| 2026-04-18 19:01 | -9.29254 | -49.15966 | 28739 ft | 452 kts | 306° |
| 2026-04-18 19:01 | -9.27305 | -49.18475 | 29019 ft | 454 kts | 306° |
| 2026-04-18 19:01 | -9.25354 | -49.20986 | 29299 ft | 456 kts | 306° |
| 2026-04-18 19:01 | -9.23390 | -49.23513 | 29564 ft | 458 kts | 306° |
| 2026-04-18 19:02 | -9.21415 | -49.26053 | 29817 ft | 459 kts | 306° |
| 2026-04-18 19:02 | -9.19439 | -49.28594 | 30166 ft | 459 kts | 306° |
| 2026-04-18 19:02 | -9.17473 | -49.31122 | 30585 ft | 457 kts | 306° |
| 2026-04-18 19:02 | -9.15501 | -49.33657 | 30969 ft | 456 kts | 306° |
| 2026-04-18 19:03 | -9.13546 | -49.36169 | 31320 ft | 455 kts | 306° |
| 2026-04-18 19:03 | -9.11586 | -49.38688 | 31714 ft | 454 kts | 306° |
| 2026-04-18 19:03 | -9.09637 | -49.41191 | 32110 ft | 452 kts | 306° |
| 2026-04-18 19:04 | -9.05765 | -49.46165 | 32832 ft | 451 kts | 307° |
| 2026-04-18 19:04 | -9.03829 | -49.48650 | 33219 ft | 449 kts | 307° |
| 2026-04-18 19:04 | -9.01894 | -49.51134 | 33595 ft | 448 kts | 307° |
| 2026-04-18 19:04 | -8.99968 | -49.53607 | 33975 ft | 447 kts | 307° |
| 2026-04-18 19:05 | -8.98048 | -49.56070 | 34347 ft | 445 kts | 307° |
| 2026-04-18 19:05 | -8.94221 | -49.60980 | 35033 ft | 444 kts | 307° |
| 2026-04-18 19:05 | -8.92307 | -49.63434 | 35314 ft | 444 kts | 307° |
| 2026-04-18 19:06 | -8.90400 | -49.65880 | 35646 ft | 443 kts | 307° |
| 2026-04-18 19:06 | -8.86564 | -49.70797 | 35824 ft | 446 kts | 307° |
| 2026-04-18 19:06 | -8.84649 | -49.73251 | 35829 ft | 446 kts | 307° |
| 2026-04-18 19:07 | -8.80822 | -49.78155 | 35833 ft | 442 kts | 307° |
| 2026-04-18 19:07 | -8.77019 | -49.83024 | 35834 ft | 442 kts | 307° |
| 2026-04-18 19:08 | -8.73201 | -49.87913 | 35836 ft | 442 kts | 307° |
| 2026-04-18 19:08 | -8.69418 | -49.92755 | 35836 ft | 442 kts | 307° |
| 2026-04-18 19:09 | -8.65604 | -49.97633 | 35837 ft | 442 kts | 307° |
| 2026-04-18 19:09 | -8.61792 | -50.02508 | 35842 ft | 442 kts | 307° |
| 2026-04-18 19:10 | -8.57971 | -50.07393 | 35852 ft | 443 kts | 307° |
| 2026-04-18 19:10 | -8.54146 | -50.12282 | 35854 ft | 442 kts | 307° |
| 2026-04-18 19:11 | -8.50323 | -50.17166 | 35851 ft | 443 kts | 307° |
| 2026-04-18 19:11 | -8.46497 | -50.22049 | 35858 ft | 442 kts | 307° |
| 2026-04-18 19:12 | -8.42683 | -50.26919 | 35858 ft | 442 kts | 307° |
| 2026-04-18 19:12 | -8.38890 | -50.31759 | 35859 ft | 442 kts | 307° |
| 2026-04-18 19:13 | -8.35073 | -50.36629 | 35859 ft | 442 kts | 307° |
| 2026-04-18 19:13 | -8.31253 | -50.41501 | 35861 ft | 443 kts | 307° |
| 2026-04-18 19:14 | -8.28043 | -50.45592 | 35861 ft | 444 kts | 307° |
| 2026-04-18 19:14 | -8.24240 | -50.50440 | 35864 ft | 444 kts | 307° |
| 2026-04-18 19:15 | -8.20393 | -50.55337 | 35866 ft | 448 kts | 307° |
| 2026-04-18 19:15 | -8.16516 | -50.60278 | 35864 ft | 447 kts | 307° |
| 2026-04-18 19:16 | -8.12677 | -50.65166 | 35865 ft | 443 kts | 307° |
| 2026-04-18 19:16 | -8.08840 | -50.70045 | 35867 ft | 445 kts | 307° |
| 2026-04-18 19:17 | -8.04985 | -50.74950 | 35866 ft | 445 kts | 307° |
| 2026-04-18 19:17 | -8.01151 | -50.79827 | 35868 ft | 442 kts | 307° |
| 2026-04-18 19:18 | -7.97325 | -50.84691 | 35869 ft | 444 kts | 307° |
| 2026-04-18 19:18 | -7.93477 | -50.89581 | 35868 ft | 445 kts | 307° |
| 2026-04-18 19:19 | -7.89614 | -50.94491 | 35870 ft | 447 kts | 308° |
| 2026-04-18 19:19 | -7.85752 | -50.99396 | 35871 ft | 447 kts | 308° |
| 2026-04-18 19:20 | -7.81868 | -51.04327 | 35868 ft | 449 kts | 307° |
| 2026-04-18 19:20 | -7.78015 | -51.09225 | 35872 ft | 448 kts | 308° |
| 2026-04-18 19:21 | -7.74141 | -51.14141 | 35870 ft | 446 kts | 308° |
| 2026-04-18 19:21 | -7.70266 | -51.19051 | 35873 ft | 448 kts | 308° |
| 2026-04-18 19:22 | -7.66392 | -51.23964 | 35871 ft | 446 kts | 308° |
| 2026-04-18 19:22 | -7.62534 | -51.28851 | 35871 ft | 445 kts | 308° |
| 2026-04-18 19:23 | -7.58411 | -51.33515 | 35871 ft | 446 kts | 313° |
| 2026-04-18 19:23 | -7.54157 | -51.38053 | 35871 ft | 446 kts | 312° |
| 2026-04-18 19:24 | -7.49923 | -51.42620 | 35871 ft | 446 kts | 312° |
| 2026-04-18 19:24 | -7.45700 | -51.47196 | 35871 ft | 446 kts | 312° |
| 2026-04-18 19:25 | -7.41474 | -51.51784 | 35870 ft | 446 kts | 312° |
| 2026-04-18 19:25 | -7.37287 | -51.56339 | 35870 ft | 446 kts | 312° |
| 2026-04-18 19:26 | -7.33069 | -51.60930 | 35866 ft | 448 kts | 312° |
| 2026-04-18 19:26 | -7.28830 | -51.65537 | 35876 ft | 449 kts | 312° |
| 2026-04-18 19:27 | -7.24598 | -51.70140 | 35869 ft | 446 kts | 312° |
| 2026-04-18 19:27 | -7.20379 | -51.74724 | 35869 ft | 446 kts | 312° |
| 2026-04-18 19:28 | -7.16151 | -51.79317 | 35869 ft | 446 kts | 312° |
| 2026-04-18 19:28 | -7.11950 | -51.83878 | 35868 ft | 447 kts | 312° |
| 2026-04-18 19:29 | -7.07706 | -51.88485 | 35867 ft | 446 kts | 312° |
| 2026-04-18 19:29 | -7.03501 | -51.93048 | 35866 ft | 447 kts | 312° |
| 2026-04-18 19:30 | -6.99274 | -51.97634 | 35865 ft | 447 kts | 312° |
| 2026-04-18 19:30 | -6.95045 | -52.02220 | 35866 ft | 448 kts | 312° |
| 2026-04-18 19:31 | -6.90804 | -52.06819 | 35863 ft | 447 kts | 312° |
| 2026-04-18 19:31 | -6.86563 | -52.11417 | 35863 ft | 447 kts | 312° |
| 2026-04-18 19:32 | -6.82328 | -52.16007 | 35862 ft | 448 kts | 312° |
| 2026-04-18 19:32 | -6.78092 | -52.20596 | 35860 ft | 447 kts | 312° |
| 2026-04-18 19:33 | -6.73850 | -52.25192 | 35873 ft | 449 kts | 312° |
| 2026-04-18 19:33 | -6.69609 | -52.29785 | 35876 ft | 448 kts | 312° |
| 2026-04-18 19:34 | -6.65365 | -52.34378 | 35876 ft | 447 kts | 312° |
| 2026-04-18 19:34 | -6.61163 | -52.38926 | 35875 ft | 447 kts | 312° |
| 2026-04-18 19:35 | -6.56928 | -52.43509 | 35875 ft | 447 kts | 312° |
| 2026-04-18 19:35 | -6.52684 | -52.48106 | 35874 ft | 447 kts | 312° |
| 2026-04-18 19:36 | -6.48444 | -52.52691 | 35873 ft | 447 kts | 312° |
| 2026-04-18 19:36 | -6.44204 | -52.57274 | 35873 ft | 447 kts | 312° |
| 2026-04-18 19:37 | -6.39971 | -52.61848 | 35873 ft | 447 kts | 312° |
| 2026-04-18 19:37 | -6.35730 | -52.66429 | 35872 ft | 447 kts | 312° |
| 2026-04-18 19:38 | -6.31422 | -52.70986 | 35927 ft | 455 kts | 314° |
| 2026-04-18 19:38 | -6.26982 | -52.75456 | 35869 ft | 452 kts | 314° |
| 2026-04-18 19:39 | -6.22579 | -52.79901 | 35869 ft | 447 kts | 314° |
| 2026-04-18 19:39 | -6.18196 | -52.84334 | 35869 ft | 447 kts | 314° |
| 2026-04-18 19:40 | -6.13804 | -52.88779 | 35868 ft | 447 kts | 314° |
| 2026-04-18 19:40 | -6.09417 | -52.93218 | 35856 ft | 447 kts | 314° |
| 2026-04-18 19:41 | -6.05062 | -52.97633 | 35842 ft | 447 kts | 314° |
| 2026-04-18 19:41 | -6.00679 | -53.02071 | 35835 ft | 447 kts | 314° |
| 2026-04-18 19:42 | -5.96295 | -53.06509 | 35834 ft | 449 kts | 314° |
| 2026-04-18 19:42 | -5.91889 | -53.10967 | 35832 ft | 449 kts | 314° |
| 2026-04-18 19:43 | -5.87487 | -53.15419 | 35831 ft | 449 kts | 314° |
| 2026-04-18 19:43 | -5.83087 | -53.19869 | 35832 ft | 449 kts | 314° |
| 2026-04-18 19:44 | -5.78677 | -53.24330 | 35830 ft | 450 kts | 314° |
| 2026-04-18 19:45 | -5.72069 | -53.31008 | 35827 ft | 448 kts | 314° |
| 2026-04-18 19:45 | -5.67676 | -53.35446 | 35826 ft | 449 kts | 314° |
| 2026-04-18 19:46 | -5.63274 | -53.39895 | 35826 ft | 449 kts | 314° |
| 2026-04-18 19:46 | -5.58871 | -53.44342 | 35825 ft | 449 kts | 314° |
| 2026-04-18 19:47 | -5.54467 | -53.48790 | 35825 ft | 450 kts | 314° |
| 2026-04-18 19:47 | -5.50054 | -53.53244 | 35822 ft | 449 kts | 314° |
| 2026-04-18 19:48 | -5.45649 | -53.57689 | 35822 ft | 448 kts | 314° |
| 2026-04-18 19:48 | -5.41270 | -53.62108 | 35820 ft | 450 kts | 314° |
| 2026-04-18 19:49 | -5.36843 | -53.66572 | 35818 ft | 450 kts | 314° |
| 2026-04-18 19:49 | -5.32433 | -53.71024 | 35823 ft | 451 kts | 314° |
| 2026-04-18 19:50 | -5.27986 | -53.75503 | 35817 ft | 452 kts | 314° |
| 2026-04-18 19:50 | -5.23556 | -53.79977 | 35817 ft | 451 kts | 314° |
| 2026-04-18 19:51 | -5.19118 | -53.84451 | 35818 ft | 452 kts | 314° |
| 2026-04-18 19:51 | -5.14688 | -53.88917 | 35820 ft | 451 kts | 314° |
| 2026-04-18 19:52 | -5.10269 | -53.93372 | 35814 ft | 450 kts | 314° |
| 2026-04-18 19:52 | -5.05843 | -53.97831 | 35816 ft | 450 kts | 314° |
| 2026-04-18 19:53 | -5.01409 | -54.02296 | 35813 ft | 451 kts | 314° |
| 2026-04-18 19:53 | -4.94478 | -54.08613 | 35809 ft | 450 kts | 324° |
| 2026-04-18 19:54 | -4.89080 | -54.11846 | 35827 ft | 452 kts | 331° |
| 2026-04-18 19:54 | -4.83529 | -54.14779 | 35816 ft | 451 kts | 332° |
| 2026-04-18 19:55 | -4.77977 | -54.17721 | 35813 ft | 451 kts | 332° |
| 2026-04-18 19:55 | -4.72427 | -54.20668 | 35813 ft | 451 kts | 332° |
| 2026-04-18 19:56 | -4.66860 | -54.23625 | 35813 ft | 451 kts | 332° |
| 2026-04-18 19:56 | -4.61308 | -54.26577 | 35812 ft | 451 kts | 332° |
| 2026-04-18 19:57 | -4.55790 | -54.29506 | 35813 ft | 453 kts | 332° |
| 2026-04-18 19:57 | -4.50225 | -54.32464 | 35813 ft | 452 kts | 332° |
| 2026-04-18 19:58 | -4.44672 | -54.35416 | 35815 ft | 452 kts | 332° |
| 2026-04-18 19:58 | -4.40055 | -54.37869 | 35812 ft | 451 kts | 332° |
| 2026-04-18 19:59 | -4.33564 | -54.41315 | 35665 ft | 453 kts | 332° |
| 2026-04-18 19:59 | -4.31730 | -54.42289 | 35453 ft | 450 kts | 332° |
| 2026-04-18 19:59 | -4.28975 | -54.43751 | 35062 ft | 445 kts | 332° |
| 2026-04-18 20:00 | -4.26246 | -54.45200 | 34585 ft | 442 kts | 332° |
| 2026-04-18 20:00 | -4.23539 | -54.46637 | 34115 ft | 439 kts | 332° |
| 2026-04-18 20:00 | -4.20803 | -54.47962 | 33647 ft | 436 kts | 341° |
| 2026-04-18 20:00 | -4.17868 | -54.48708 | 33213 ft | 433 kts | 349° |
| 2026-04-18 20:01 | -4.14907 | -54.49196 | 32733 ft | 431 kts | 352° |
| 2026-04-18 20:01 | -4.11948 | -54.49547 | 32277 ft | 428 kts | 355° |
| 2026-04-18 20:01 | -4.08981 | -54.49789 | 31827 ft | 426 kts | 356° |
| 2026-04-18 20:01 | -4.06020 | -54.49949 | 31382 ft | 424 kts | 358° |
| 2026-04-18 20:02 | -4.03094 | -54.50090 | 30946 ft | 421 kts | 358° |
| 2026-04-18 20:02 | -4.00166 | -54.50225 | 30511 ft | 418 kts | 358° |
| 2026-04-18 20:02 | -3.97266 | -54.50357 | 30080 ft | 416 kts | 358° |
| 2026-04-18 20:02 | -3.94390 | -54.50486 | 29653 ft | 414 kts | 358° |
| 2026-04-18 20:03 | -3.91509 | -54.50614 | 29212 ft | 411 kts | 358° |
| 2026-04-18 20:03 | -3.88661 | -54.50740 | 28765 ft | 409 kts | 358° |
| 2026-04-18 20:03 | -3.85833 | -54.50865 | 28318 ft | 406 kts | 358° |
| 2026-04-18 20:03 | -3.83019 | -54.50989 | 27872 ft | 403 kts | 358° |
| 2026-04-18 20:04 | -3.80223 | -54.51112 | 27427 ft | 401 kts | 358° |
| 2026-04-18 20:04 | -3.77480 | -54.51234 | 26989 ft | 398 kts | 358° |
| 2026-04-18 20:04 | -3.74685 | -54.51356 | 26542 ft | 396 kts | 358° |
| 2026-04-18 20:04 | -3.71947 | -54.51476 | 26103 ft | 393 kts | 358° |
| 2026-04-18 20:05 | -3.69226 | -54.51595 | 25667 ft | 390 kts | 358° |
| 2026-04-18 20:05 | -3.66552 | -54.51712 | 25237 ft | 388 kts | 358° |
| 2026-04-18 20:05 | -3.63863 | -54.51830 | 24804 ft | 385 kts | 358° |
| 2026-04-18 20:05 | -3.61203 | -54.51947 | 24375 ft | 383 kts | 358° |
| 2026-04-18 20:06 | -3.58539 | -54.52064 | 23944 ft | 380 kts | 358° |
| 2026-04-18 20:06 | -3.55910 | -54.52179 | 23515 ft | 378 kts | 359° |
| 2026-04-18 20:06 | -3.53290 | -54.52294 | 23085 ft | 375 kts | 359° |
| 2026-04-18 20:06 | -3.50689 | -54.52408 | 22656 ft | 373 kts | 359° |
| 2026-04-18 20:07 | -3.48108 | -54.52521 | 22229 ft | 371 kts | 359° |
| 2026-04-18 20:07 | -3.45535 | -54.52634 | 21800 ft | 368 kts | 359° |
| 2026-04-18 20:07 | -3.42979 | -54.52747 | 21371 ft | 366 kts | 359° |
| 2026-04-18 20:07 | -3.40446 | -54.52858 | 20946 ft | 363 kts | 359° |
| 2026-04-18 20:08 | -3.37933 | -54.52968 | 20521 ft | 361 kts | 359° |
| 2026-04-18 20:08 | -3.35426 | -54.53077 | 20093 ft | 359 kts | 359° |
| 2026-04-18 20:08 | -3.32941 | -54.53186 | 19667 ft | 357 kts | 359° |
| 2026-04-18 20:08 | -3.30475 | -54.53294 | 19234 ft | 348 kts | 359° |
| 2026-04-18 20:09 | -3.28108 | -54.53398 | 18821 ft | 332 kts | 359° |
| 2026-04-18 20:09 | -3.25871 | -54.53497 | 18432 ft | 319 kts | 359° |
| 2026-04-18 20:09 | -3.23649 | -54.53593 | 18052 ft | 327 kts | 359° |
| 2026-04-18 20:09 | -3.21295 | -54.53696 | 17650 ft | 347 kts | 359° |
| 2026-04-18 20:10 | -3.18891 | -54.53801 | 17212 ft | 340 kts | 359° |
| 2026-04-18 20:10 | -3.16588 | -54.53901 | 16794 ft | 325 kts | 359° |
| 2026-04-18 20:10 | -3.14343 | -54.53999 | 16385 ft | 310 kts | 359° |
| 2026-04-18 20:10 | -3.12221 | -54.54093 | 16011 ft | 315 kts | 359° |
| 2026-04-18 20:11 | -3.09993 | -54.54191 | 15606 ft | 324 kts | 359° |
| 2026-04-18 20:11 | -3.07716 | -54.54291 | 15184 ft | 329 kts | 359° |
| 2026-04-18 20:11 | -3.05434 | -54.54391 | 14760 ft | 328 kts | 359° |
| 2026-04-18 20:11 | -3.03155 | -54.54491 | 14334 ft | 327 kts | 359° |
| 2026-04-18 20:12 | -3.00885 | -54.54590 | 13908 ft | 325 kts | 359° |
| 2026-04-18 20:12 | -2.98640 | -54.54689 | 13484 ft | 323 kts | 359° |
| 2026-04-18 20:12 | -2.96424 | -54.54786 | 13055 ft | 313 kts | 359° |
| 2026-04-18 20:12 | -2.94256 | -54.54881 | 12642 ft | 311 kts | 359° |
| 2026-04-18 20:13 | -2.92089 | -54.54976 | 12219 ft | 310 kts | 359° |
| 2026-04-18 20:13 | -2.89963 | -54.55069 | 11800 ft | 309 kts | 359° |
| 2026-04-18 20:13 | -2.87815 | -54.55162 | 11372 ft | 308 kts | 359° |
| 2026-04-18 20:13 | -2.85673 | -54.55257 | 10945 ft | 307 kts | 359° |
| 2026-04-18 20:14 | -2.83541 | -54.55349 | 10520 ft | 305 kts | 359° |
| 2026-04-18 20:14 | -2.81427 | -54.55439 | 10095 ft | 304 kts | 358° |
| 2026-04-18 20:14 | -2.79350 | -54.55532 | 9781 ft | 287 kts | 358° |
| 2026-04-18 20:14 | -2.77414 | -54.55617 | 9734 ft | 276 kts | 358° |
| 2026-04-18 20:15 | -2.75520 | -54.55701 | 9385 ft | 270 kts | 358° |
| 2026-04-18 20:15 | -2.73669 | -54.55782 | 8960 ft | 260 kts | 358° |
| 2026-04-18 20:15 | -2.71857 | -54.55861 | 8601 ft | 264 kts | 358° |
| 2026-04-18 20:15 | -2.69996 | -54.55943 | 8233 ft | 270 kts | 358° |
| 2026-04-18 20:16 | -2.68104 | -54.56026 | 7857 ft | 273 kts | 358° |
| 2026-04-18 20:16 | -2.66218 | -54.56109 | 7479 ft | 265 kts | 357° |
| 2026-04-18 20:16 | -2.64446 | -54.56186 | 7121 ft | 252 kts | 357° |
| 2026-04-18 20:16 | -2.62687 | -54.56263 | 6785 ft | 259 kts | 357° |
| 2026-04-18 20:17 | -2.60871 | -54.56343 | 6422 ft | 262 kts | 357° |
| 2026-04-18 20:17 | -2.59049 | -54.56422 | 6058 ft | 263 kts | 357° |
| 2026-04-18 20:17 | -2.57221 | -54.56503 | 5690 ft | 259 kts | 357° |
| 2026-04-18 20:17 | -2.55476 | -54.56579 | 5334 ft | 245 kts | 356° |
| 2026-04-18 20:18 | -2.53780 | -54.56653 | 4994 ft | 246 kts | 356° |
| 2026-04-18 20:18 | -2.52040 | -54.56729 | 4645 ft | 252 kts | 356° |
| 2026-04-18 20:18 | -2.50284 | -54.56806 | 4478 ft | 254 kts | 356° |
| 2026-04-18 20:18 | -2.48504 | -54.56947 | 4162 ft | 255 kts | 348° |
| 2026-04-18 20:19 | -2.46860 | -54.57506 | 4072 ft | 244 kts | 333° |
| 2026-04-18 20:19 | -2.45458 | -54.58290 | 3942 ft | 218 kts | 328° |
| 2026-04-18 20:19 | -2.44226 | -54.59032 | 3754 ft | 197 kts | 328° |
| 2026-04-18 20:19 | -2.43073 | -54.59698 | 3385 ft | 190 kts | 329° |
| 2026-04-18 20:20 | -2.41936 | -54.60340 | 3121 ft | 185 kts | 329° |
| 2026-04-18 20:20 | -2.40829 | -54.60965 | 2982 ft | 184 kts | 328° |
| 2026-04-18 20:20 | -2.39760 | -54.61659 | 2812 ft | 178 kts | 311° |
| 2026-04-18 20:20 | -2.39408 | -54.62719 | 2723 ft | 162 kts | 268° |
| 2026-04-18 20:21 | -2.39628 | -54.63816 | 2831 ft | 160 kts | 260° |
| 2026-04-18 20:21 | -2.39873 | -54.64926 | 2867 ft | 164 kts | 262° |
| 2026-04-18 20:21 | -2.40072 | -54.66043 | 2811 ft | 167 kts | 263° |
| 2026-04-18 20:21 | -2.40264 | -54.67188 | 2594 ft | 167 kts | 263° |
| 2026-04-18 20:22 | -2.40453 | -54.68338 | 2350 ft | 166 kts | 263° |
| 2026-04-18 20:22 | -2.40639 | -54.69473 | 2112 ft | 164 kts | 263° |
| 2026-04-18 20:22 | -2.40822 | -54.70596 | 1879 ft | 163 kts | 263° |
| 2026-04-18 20:22 | -2.41004 | -54.71712 | 1651 ft | 162 kts | 263° |
| 2026-04-18 20:23 | -2.41184 | -54.72816 | 1436 ft | 161 kts | 263° |
| 2026-04-18 20:23 | -2.41366 | -54.73926 | 1192 ft | 162 kts | 263° |
| 2026-04-18 20:23 | -2.41548 | -54.75043 | 958 ft | 163 kts | 263° |
| 2026-04-18 20:23 | -2.41735 | -54.76140 | 720 ft | 155 kts | 261° |
| 2026-04-18 20:24 | -2.41951 | -54.77170 | 486 ft | 148 kts | 261° |
| 2026-04-18 20:24 | -2.42127 | -54.78182 | 252 ft | 145 kts | 264° |
| 2026-04-18 20:24 | -2.42257 | -54.79105 | 206 ft | 112 kts | 258° |
| 2026-04-18 20:24 | -2.42339 | -54.79635 | 206 ft | 43 kts | 261° |
| 2026-04-18 20:25 | -2.42382 | -54.79788 | 206 ft | 13 kts | 242° |
| 2026-04-18 20:25 | -2.42351 | -54.79822 | 206 ft | 6 kts | 45° |
| 2026-04-18 20:25 | -2.42357 | -54.79781 | 206 ft | 9 kts | 101° |
| 2026-04-18 20:25 | -2.42344 | -54.79657 | 206 ft | 22 kts | 79° |
| 2026-04-18 20:26 | -2.42321 | -54.79508 | 206 ft | 21 kts | 82° |
| 2026-04-18 20:26 | -2.42299 | -54.79366 | 206 ft | 20 kts | 81° |
| 2026-04-18 20:26 | -2.42277 | -54.79232 | 206 ft | 19 kts | 80° |
| 2026-04-18 20:26 | -2.42255 | -54.79114 | 206 ft | 16 kts | 79° |
| 2026-04-18 20:27 | -2.42245 | -54.79006 | 206 ft | 15 kts | 88° |
| 2026-04-18 20:27 | -2.42272 | -54.78907 | 206 ft | 15 kts | 122° |
| 2026-04-18 20:27 | -2.42335 | -54.78850 | 206 ft | 11 kts | 141° |
| 2026-04-18 20:27 | -2.42390 | -54.78805 | 206 ft | 10 kts | 141° |
| 2026-04-18 20:28 | -2.42443 | -54.78761 | 206 ft | 10 kts | 137° |
| 2026-04-18 20:28 | -2.42457 | -54.78717 | 206 ft | 7 kts | 54° |
| 2026-04-18 20:28 | -2.42430 | -54.78677 | 206 ft | 7 kts | 63° |
| 2026-04-18 20:28 | -2.42414 | -54.78638 | 206 ft | 4 kts | 72° |
| 2026-04-18 20:29 | -2.42406 | -54.78609 | 206 ft | 4 kts | 74° |
| 2026-04-18 20:29 | -2.42397 | -54.78583 | 206 ft | 2 kts | 67° |
| 2026-04-18 20:29 | -2.42400 | -54.78575 | 206 ft | 1 kts | 146° |
| 2026-04-18 20:29 | -2.42412 | -54.78569 | 206 ft | 0 kts | 157° |